createdAt,value
2022-08-07T00:01:12.679Z,102779.66
2022-08-07T00:03:51.634Z,102783.97
2022-08-07T00:06:18.588Z,102776.94
2022-08-07T00:08:56.049Z,102762.06
2022-08-07T00:11:30.051Z,102773.44
2022-08-07T00:13:59.758Z,102779.47
2022-08-07T00:16:28.078Z,102771.59
2022-08-07T00:18:54.941Z,102776.72
2022-08-07T00:21:56.944Z,102771.41
2022-08-07T00:24:08.824Z,102776.59
2022-08-07T00:26:49.245Z,102771.34
2022-08-07T00:29:25.997Z,102761.59
2022-08-07T00:32:01.951Z,102768.50
2022-08-07T00:34:30.364Z,102766.72
2022-08-07T00:36:59.042Z,102761.44
2022-08-07T00:39:26.917Z,102764.00
2022-08-07T00:42:01.728Z,102760.50
2022-08-07T00:44:33.043Z,102766.53
2022-08-07T00:46:59.946Z,102754.28
2022-08-07T00:50:19.781Z,102763.78
2022-08-07T00:52:13.025Z,102758.53
2022-08-07T00:54:40.541Z,102754.97
2022-08-07T00:57:07.466Z,102754.09
2022-08-07T00:59:37.444Z,102746.16
2022-08-07T01:02:08.857Z,102760.06
2022-08-07T01:04:43.164Z,102755.63
2022-08-07T01:07:12.077Z,102753.91
2022-08-07T01:10:04.586Z,102747.69
2022-08-07T01:12:29.973Z,102758.03
2022-08-07T01:15:01.397Z,102754.63
2022-08-07T01:17:30.831Z,102753.59
2022-08-07T01:20:04.789Z,102744.88
2022-08-07T01:22:31.762Z,102749.16
2022-08-07T01:25:00.846Z,102751.63
2022-08-07T01:27:32.131Z,102752.53
2022-08-07T01:29:59.930Z,102756.97
2022-08-07T01:32:27.835Z,102761.22
2022-08-07T01:34:55.852Z,102757.69
2022-08-07T01:37:23.947Z,102742.84
2022-08-07T01:39:50.759Z,102741.94
2022-08-07T01:42:39.455Z,102743.56
2022-08-07T01:45:15.697Z,102749.69
2022-08-07T01:48:20.438Z,102742.72
2022-08-07T01:50:30.470Z,102740.09
2022-08-07T01:52:58.758Z,102738.41
2022-08-07T01:55:33.501Z,102739.13
2022-08-07T01:58:05.857Z,102733.91
2022-08-07T02:00:38.813Z,102735.56
2022-08-07T02:03:22.022Z,102731.88
2022-08-07T02:05:59.256Z,102720.47
2022-08-07T02:08:27.975Z,102725.72
2022-08-07T02:10:59.275Z,102732.69
2022-08-07T02:13:58.278Z,102729.91
2022-08-07T02:16:18.169Z,102719.56
2022-08-07T02:18:48.125Z,102729.09
2022-08-07T02:21:19.789Z,102722.00
2022-08-07T02:23:47.970Z,102729.03
2022-08-07T02:26:32.930Z,102732.53
2022-08-07T02:29:03.096Z,102728.09
2022-08-07T02:31:32.545Z,102719.34
2022-08-07T02:34:10.987Z,102713.25
2022-08-07T02:36:41.189Z,102731.41
2022-08-07T02:39:16.584Z,102716.69
2022-08-07T02:41:47.368Z,102717.44
2022-08-07T02:44:18.497Z,102715.69
2022-08-07T02:46:52.762Z,102721.72
2022-08-07T02:49:28.950Z,102726.84
2022-08-07T02:52:10.252Z,102718.94
2022-08-07T02:54:42.742Z,102717.00
2022-08-07T02:57:13.550Z,102711.03
2022-08-07T02:59:54.906Z,102718.81
2022-08-07T03:02:28.374Z,102719.59
2022-08-07T03:04:56.393Z,102721.25
2022-08-07T03:07:58.981Z,102714.44
2022-08-07T03:10:11.876Z,102712.72
2022-08-07T03:12:41.943Z,102710.72
2022-08-07T03:15:10.760Z,102712.50
2022-08-07T03:17:53.704Z,102708.88
2022-08-07T03:20:21.841Z,102715.00
2022-08-07T03:22:50.550Z,102705.38
2022-08-07T03:25:21.133Z,102709.75
2022-08-07T03:27:59.318Z,102701.88
2022-08-07T03:30:27.370Z,102707.19
2022-08-07T03:32:58.698Z,102703.59
2022-08-07T03:35:28.050Z,102698.34
2022-08-07T03:38:13.309Z,102715.72
2022-08-07T03:40:40.441Z,102711.16
2022-08-07T03:43:14.484Z,102704.16
2022-08-07T03:45:43.443Z,102705.09
2022-08-07T03:48:11.612Z,102704.97
2022-08-07T03:50:39.023Z,102710.19
2022-08-07T03:53:10.578Z,102709.28
2022-08-07T03:55:53.130Z,102711.78
2022-08-07T03:58:33.395Z,102711.59
2022-08-07T04:01:07.591Z,102712.66
2022-08-07T04:03:49.824Z,102707.22
2022-08-07T04:06:37.831Z,102679.28
2022-08-07T04:09:05.823Z,102713.44
2022-08-07T04:12:25.501Z,102704.78
2022-08-07T04:14:37.814Z,102701.25
2022-08-07T04:17:19.835Z,102696.00
2022-08-07T04:19:55.436Z,102697.78
2022-08-07T04:22:28.956Z,102696.84
2022-08-07T04:24:58.878Z,102708.13
2022-08-07T04:27:28.519Z,102710.00
2022-08-07T04:30:04.496Z,102710.88
2022-08-07T04:32:34.585Z,102703.91
2022-08-07T04:35:05.760Z,102703.13
2022-08-07T04:38:00.779Z,102711.91
2022-08-07T04:40:20.798Z,102708.56
2022-08-07T04:42:52.379Z,102707.69
2022-08-07T04:45:57.609Z,102706.00
2022-08-07T04:48:17.266Z,102712.09
2022-08-07T04:50:58.813Z,102711.22
2022-08-07T04:54:05.262Z,102708.56
2022-08-07T04:58:15.072Z,102727.00
2022-08-07T05:00:38.727Z,102735.84
2022-08-07T05:04:00.297Z,102727.41
2022-08-07T05:06:21.918Z,102725.47
2022-08-07T05:09:28.017Z,102715.53
2022-08-07T05:12:15.573Z,102715.97
2022-08-07T05:15:04.073Z,102704.28
2022-08-07T05:17:52.020Z,102707.41
2022-08-07T05:20:26.861Z,102707.97
2022-08-07T05:22:58.102Z,102722.69
2022-08-07T05:26:08.802Z,102717.41
2022-08-07T05:28:22.677Z,102730.75
2022-08-07T05:30:52.271Z,102713.47
2022-08-07T05:33:20.815Z,102724.63
2022-08-07T05:35:51.201Z,102735.63
2022-08-07T05:39:00.331Z,102724.03
2022-08-07T05:41:14.416Z,102720.19
2022-08-07T05:44:01.293Z,102712.91
2022-08-07T05:46:38.283Z,102711.53
2022-08-07T05:49:12.604Z,102710.03
2022-08-07T05:51:42.299Z,102715.66
2022-08-07T05:54:30.199Z,102710.72
2022-08-07T05:56:57.985Z,102709.97
2022-08-07T05:59:27.292Z,102718.72
2022-08-07T06:01:55.964Z,102718.91
2022-08-07T06:04:29.794Z,102720.72
2022-08-07T06:07:03.886Z,102715.50
2022-08-07T06:09:44.792Z,102721.63
2022-08-07T06:12:12.441Z,102719.97
2022-08-07T06:14:43.079Z,102717.38
2022-08-07T06:17:19.255Z,102720.00
2022-08-07T06:20:03.437Z,102713.91
2022-08-07T06:22:38.341Z,102727.78
2022-08-07T06:25:06.568Z,102719.00
2022-08-07T06:27:44.215Z,102719.88
2022-08-07T06:30:36.102Z,102738.13
2022-08-07T06:33:09.951Z,102722.31
2022-08-07T06:35:45.600Z,102733.63
2022-08-07T06:38:19.234Z,102737.00
2022-08-07T06:40:51.126Z,102717.81
2022-08-07T06:43:23.607Z,102737.06
2022-08-07T06:45:50.844Z,102734.22
2022-08-07T06:48:24.970Z,102729.91
2022-08-07T06:50:54.836Z,102736.84
2022-08-07T06:55:27.765Z,102738.47
2022-08-07T06:56:15.020Z,102737.63
2022-08-07T07:00:10.353Z,102744.53
2022-08-07T07:01:44.043Z,102729.66
2022-08-07T07:04:28.019Z,102745.25
2022-08-07T07:07:10.745Z,102734.72
2022-08-07T07:09:47.686Z,102735.03
2022-08-07T07:12:33.403Z,102738.50
2022-08-07T07:15:23.624Z,102725.28
2022-08-07T07:18:05.596Z,102728.50
2022-08-07T07:20:36.938Z,102728.34
2022-08-07T07:24:09.624Z,102719.31
2022-08-07T07:26:33.238Z,102716.56
2022-08-07T07:29:40.117Z,102725.06
2022-08-07T07:31:47.043Z,102719.88
2022-08-07T07:34:18.160Z,102724.97
2022-08-07T07:36:48.057Z,102718.34
2022-08-07T07:39:25.536Z,102715.88
2022-08-07T07:42:12.940Z,102718.69
2022-08-07T07:44:44.555Z,102717.84
2022-08-07T07:47:24.007Z,102716.25
2022-08-07T07:50:34.218Z,102725.56
2022-08-07T07:52:41.945Z,102716.78
2022-08-07T07:55:11.473Z,102717.41
2022-08-07T07:57:52.083Z,102704.47
2022-08-07T08:00:29.448Z,102710.72
2022-08-07T08:03:06.194Z,102702.53
2022-08-07T08:05:50.977Z,102700.19
2022-08-07T08:08:35.776Z,102702.63
2022-08-07T08:11:05.647Z,102700.69
2022-08-07T08:13:55.508Z,102701.94
2022-08-07T08:16:40.205Z,102700.16
2022-08-07T08:19:18.170Z,102699.72
2022-08-07T08:22:17.378Z,102693.19
2022-08-07T08:25:24.782Z,102696.50
2022-08-07T08:27:57.163Z,102692.16
2022-08-07T08:30:29.633Z,102687.19
2022-08-07T08:33:01.857Z,102677.44
2022-08-07T08:35:38.975Z,102673.28
2022-08-07T08:38:08.755Z,102677.66
2022-08-07T08:40:48.495Z,102675.00
2022-08-07T08:43:21.374Z,102680.91
2022-08-07T08:46:20.487Z,102684.72
2022-08-07T08:49:07.216Z,102683.47
2022-08-07T08:52:13.099Z,102685.47
2022-08-07T08:54:41.537Z,102670.19
2022-08-07T08:57:21.419Z,102676.50
2022-08-07T09:00:01.611Z,102682.38
2022-08-07T09:02:41.768Z,102678.31
2022-08-07T09:05:37.789Z,102680.34
2022-08-07T09:08:29.146Z,102684.38
2022-08-07T09:11:11.321Z,102692.03
2022-08-07T09:13:49.762Z,102689.78
2022-08-07T09:16:40.813Z,102690.13
2022-08-07T09:19:52.829Z,102694.81
2022-08-07T09:24:53.562Z,102704.22
2022-08-07T09:25:32.500Z,102692.81
2022-08-07T09:30:00.559Z,102681.03
2022-08-07T09:31:10.590Z,102699.97
2022-08-07T09:33:58.010Z,102692.69
2022-08-07T09:36:35.771Z,102690.47
2022-08-07T09:39:54.663Z,102693.09
2022-08-07T09:42:51.376Z,102689.69
2022-08-07T09:47:26.146Z,102694.34
2022-08-07T09:48:56.119Z,102688.38
2022-08-07T09:52:10.428Z,102695.91
2022-08-07T09:54:41.290Z,102677.72
2022-08-07T09:57:57.630Z,102675.69
2022-08-07T10:00:50.577Z,102668.28
2022-08-07T10:04:05.331Z,102671.63
2022-08-07T10:06:12.008Z,102665.28
2022-08-07T10:09:03.113Z,102666.09
2022-08-07T10:12:21.582Z,102667.22
2022-08-07T10:15:26.343Z,102656.66
2022-08-07T10:18:12.876Z,102659.41
2022-08-07T10:21:50.643Z,102662.59
2022-08-07T10:24:18.649Z,102657.94
2022-08-07T10:27:10.964Z,102640.72
2022-08-07T10:29:51.757Z,102638.06
2022-08-07T10:32:37.087Z,102646.69
2022-08-07T10:35:56.446Z,102639.41
2022-08-07T10:38:49.574Z,102635.00
2022-08-07T10:41:46.986Z,102635.50
2022-08-07T10:44:37.633Z,102636.16
2022-08-07T10:47:26.926Z,102633.88
2022-08-07T10:50:11.551Z,102621.72
2022-08-07T10:52:51.269Z,102622.97
2022-08-07T10:55:36.990Z,102617.75
2022-08-07T10:58:33.117Z,102614.47
2022-08-07T11:01:35.873Z,102609.50
2022-08-07T11:04:47.741Z,102613.28
2022-08-07T11:07:59.387Z,102616.03
2022-08-07T11:10:20.233Z,102609.78
2022-08-07T11:13:02.812Z,102611.00
2022-08-07T11:15:34.199Z,102602.13
2022-08-07T11:18:20.353Z,102607.88
2022-08-07T11:20:59.975Z,102598.53
2022-08-07T11:23:45.359Z,102602.81
2022-08-07T11:26:26.427Z,102588.84
2022-08-07T11:29:41.181Z,102593.78
2022-08-07T11:32:00.439Z,102595.88
2022-08-07T11:34:42.364Z,102599.81
2022-08-07T11:37:38.362Z,102598.09
2022-08-07T11:40:37.741Z,102603.25
2022-08-07T11:43:18.815Z,102596.63
2022-08-07T11:46:32.676Z,102585.34
2022-08-07T11:50:18.492Z,102590.13
2022-08-07T11:52:29.515Z,102589.66
2022-08-07T11:56:25.546Z,102580.09
2022-08-07T11:58:33.570Z,102583.13
2022-08-07T12:01:59.533Z,102575.94
2022-08-07T12:04:40.205Z,102570.31
2022-08-07T12:07:38.950Z,102577.31
2022-08-07T12:10:15.565Z,102569.63
2022-08-07T12:12:50.245Z,102572.66
2022-08-07T12:15:46.637Z,102567.41
2022-08-07T12:18:30.508Z,102564.16
2022-08-07T12:21:06.559Z,102567.41
2022-08-07T12:24:05.501Z,102574.78
2022-08-07T12:26:50.566Z,102558.72
2022-08-07T12:29:41.418Z,102562.06
2022-08-07T12:32:31.102Z,102558.84
2022-08-07T12:34:59.218Z,102554.34
2022-08-07T12:38:09.720Z,102553.22
2022-08-07T12:40:46.658Z,102545.13
2022-08-07T12:43:10.124Z,102545.25
2022-08-07T12:45:59.913Z,102546.31
2022-08-07T12:48:41.438Z,102542.59
2022-08-07T12:51:20.100Z,102551.91
2022-08-07T12:54:37.399Z,102541.84
2022-08-07T12:57:09.419Z,102526.03
2022-08-07T12:59:54.501Z,102535.16
2022-08-07T13:02:37.339Z,102540.22
2022-08-07T13:06:03.795Z,102540.56
2022-08-07T13:08:22.412Z,102542.56
2022-08-07T13:11:05.979Z,102527.78
2022-08-07T13:13:48.280Z,102538.09
2022-08-07T13:16:31.177Z,102530.31
2022-08-07T13:19:21.738Z,102541.72
2022-08-07T13:22:19.308Z,102538.56
2022-08-07T13:25:00.413Z,102531.53
2022-08-07T13:28:11.617Z,102528.50
2022-08-07T13:30:41.128Z,102522.56
2022-08-07T13:34:33.414Z,102523.22
2022-08-07T13:36:17.633Z,102521.16
2022-08-07T13:39:12.931Z,102521.59
2022-08-07T13:41:57.729Z,102521.94
2022-08-07T13:44:34.404Z,102523.75
2022-08-07T13:47:09.364Z,102515.31
2022-08-07T13:50:33.870Z,102515.09
2022-08-07T13:52:40.953Z,102519.69
2022-08-07T13:55:26.328Z,102517.34
2022-08-07T13:58:28.050Z,102515.44
2022-08-07T14:01:07.977Z,102503.91
2022-08-07T14:04:05.430Z,102510.84
2022-08-07T14:06:37.101Z,102514.94
2022-08-07T14:09:06.911Z,102503.34
2022-08-07T14:11:53.339Z,102497.56
2022-08-07T14:14:34.147Z,102504.97
2022-08-07T14:17:13.164Z,102516.81
2022-08-07T14:20:40.343Z,102516.13
2022-08-07T14:22:42.660Z,102510.84
2022-08-07T14:25:13.493Z,102521.09
2022-08-07T14:28:12.520Z,102502.94
2022-08-07T14:30:36.671Z,102517.03
2022-08-07T14:33:08.841Z,102522.50
2022-08-07T14:35:45.786Z,102516.22
2022-08-07T14:38:26.793Z,102521.88
2022-08-07T14:41:04.988Z,102507.16
2022-08-07T14:43:57.646Z,102503.47
2022-08-07T14:46:31.160Z,102508.66
2022-08-07T14:49:55.771Z,102516.63
2022-08-07T14:54:42.871Z,102504.69
2022-08-07T14:57:19.525Z,102505.75
2022-08-07T15:00:06.057Z,102507.16
2022-08-07T15:05:23.508Z,102505.00
2022-08-07T15:07:52.305Z,102505.22
2022-08-07T15:10:26.300Z,102508.47
2022-08-07T15:12:59.716Z,102506.19
2022-08-07T15:21:59.548Z,102505.41
2022-08-07T15:27:22.300Z,102499.13
2022-08-07T15:30:08.408Z,102506.06
2022-08-07T15:32:51.064Z,102504.50
2022-08-07T15:36:01.844Z,102500.84
2022-08-07T15:38:30.532Z,102500.91
2022-08-07T15:44:05.048Z,102491.59
2022-08-07T15:46:38.419Z,102496.16
2022-08-07T15:49:12.465Z,102491.22
2022-08-07T15:54:34.158Z,102493.09
2022-08-07T15:57:02.824Z,102494.63
2022-08-07T15:59:39.972Z,102486.72
2022-08-07T16:02:22.339Z,102493.09
2022-08-07T16:04:57.828Z,102479.16
2022-08-07T16:08:28.995Z,102486.34
2022-08-07T16:10:20.716Z,102484.66
2022-08-07T16:13:01.340Z,102481.13
2022-08-07T16:15:57.284Z,102475.94
2022-08-07T16:19:14.799Z,102470.00
2022-08-07T16:22:08.745Z,102469.94
2022-08-07T16:25:04.992Z,102475.06
2022-08-07T16:28:06.289Z,102471.59
2022-08-07T16:30:50.030Z,102471.50
2022-08-07T16:34:03.123Z,102476.63
2022-08-07T16:36:32.285Z,102469.66
2022-08-07T16:39:33.854Z,102466.47
2022-08-07T16:42:41.552Z,102470.03
2022-08-07T16:46:33.694Z,102460.50
2022-08-07T16:49:04.360Z,102465.75
2022-08-07T16:52:48.692Z,102467.66
2022-08-07T16:55:17.186Z,102481.72
2022-08-07T16:58:08.001Z,102481.91
2022-08-07T17:00:55.107Z,102477.66
2022-08-07T17:03:58.163Z,102467.16
2022-08-07T17:06:46.477Z,102475.63
2022-08-07T17:10:06.648Z,102466.22
2022-08-07T17:12:44.034Z,102468.06
2022-08-07T17:15:15.452Z,102469.88
2022-08-07T17:17:48.238Z,102467.28
2022-08-07T17:20:35.512Z,102471.78
2022-08-07T17:23:16.918Z,102465.69
2022-08-07T17:26:02.266Z,102459.72
2022-08-07T17:28:35.471Z,102459.91
2022-08-07T17:31:20.874Z,102460.94
2022-08-07T17:34:18.028Z,102455.81
2022-08-07T17:36:59.803Z,102461.97
2022-08-07T17:40:03.151Z,102453.34
2022-08-07T17:42:59.203Z,102454.25
2022-08-07T17:45:35.252Z,102447.19
2022-08-07T17:48:31.005Z,102452.34
2022-08-07T17:51:23.145Z,102457.47
2022-08-07T17:54:06.472Z,102461.75
2022-08-07T17:57:18.524Z,102455.66
2022-08-07T17:59:52.255Z,102453.91
2022-08-07T18:02:56.543Z,102463.50
2022-08-07T18:06:01.499Z,102461.53
2022-08-07T18:08:25.581Z,102462.53
2022-08-07T18:12:16.110Z,102457.41
2022-08-07T18:14:24.156Z,102461.78
2022-08-07T18:17:07.478Z,102457.53
2022-08-07T18:21:08.886Z,102465.41
2022-08-07T18:22:43.687Z,102465.53
2022-08-07T18:25:39.350Z,102455.16
2022-08-07T18:28:36.030Z,102455.28
2022-08-07T18:31:50.254Z,102465.78
2022-08-07T18:35:00.565Z,102461.47
2022-08-07T18:38:56.459Z,102465.91
2022-08-07T18:40:57.685Z,102467.75
2022-08-07T18:43:48.868Z,102474.72
2022-08-07T18:46:26.653Z,102466.97
2022-08-07T18:50:30.027Z,102473.88
2022-08-07T18:52:38.237Z,102477.47
2022-08-07T18:55:41.769Z,102478.41
2022-08-07T18:58:22.398Z,102481.94
2022-08-07T19:02:17.001Z,102477.53
2022-08-07T19:04:09.530Z,102474.09
2022-08-07T19:06:55.110Z,102492.41
2022-08-07T19:09:55.577Z,102489.81
2022-08-07T19:12:53.459Z,102489.81
2022-08-07T19:16:05.330Z,102489.84
2022-08-07T19:18:35.215Z,102492.47
2022-08-07T19:21:43.945Z,102490.75
2022-08-07T19:24:46.321Z,102489.88
2022-08-07T19:28:57.315Z,102483.78
2022-08-07T19:31:00.909Z,102502.94
2022-08-07T19:33:10.122Z,102508.13
2022-08-07T19:35:42.491Z,102508.09
2022-08-07T19:38:17.038Z,102518.56
2022-08-07T19:40:49.375Z,102525.50
2022-08-07T19:43:43.366Z,102528.97
2022-08-07T19:46:22.513Z,102525.44
2022-08-07T19:49:02.580Z,102532.41
2022-08-07T19:51:53.436Z,102524.59
2022-08-07T19:54:35.069Z,102533.28
2022-08-07T19:57:59.983Z,102526.28
2022-08-07T20:00:02.097Z,102529.75
2022-08-07T20:02:34.497Z,102530.59
2022-08-07T20:05:07.964Z,102534.09
2022-08-07T20:07:47.480Z,102541.00
2022-08-07T20:10:35.275Z,102542.75
2022-08-07T20:13:23.663Z,102541.88
2022-08-07T20:15:57.656Z,102539.22
2022-08-07T20:18:33.005Z,102539.22
2022-08-07T20:21:03.278Z,102543.53
2022-08-07T20:23:57.696Z,102540.03
2022-08-07T20:26:44.719Z,102534.81
2022-08-07T20:29:46.753Z,102548.72
2022-08-07T20:32:05.690Z,102541.72
2022-08-07T20:34:50.851Z,102539.91
2022-08-07T20:37:25.148Z,102539.97
2022-08-07T20:40:03.685Z,102542.63
2022-08-07T20:42:32.442Z,102546.09
2022-08-07T20:45:01.259Z,102543.50
2022-08-07T20:47:56.404Z,102539.16
2022-08-07T20:50:20.686Z,102542.63
2022-08-07T20:52:51.600Z,102540.00
2022-08-07T20:55:23.818Z,102544.34
2022-08-07T20:58:02.578Z,102542.53
2022-08-07T21:00:47.208Z,102534.69
2022-08-07T21:03:18.891Z,102544.25
2022-08-07T21:05:56.539Z,102545.09
2022-08-07T21:08:37.191Z,102541.59
2022-08-07T21:11:10.483Z,102546.81
2022-08-07T21:13:57.226Z,102542.44
2022-08-07T21:16:33.275Z,102548.53
2022-08-07T21:19:00.387Z,102550.25
2022-08-07T21:21:33.233Z,102537.97
2022-08-07T21:24:47.876Z,102553.59
2022-08-07T21:27:18.551Z,102551.81
2022-08-07T21:29:56.957Z,102542.16
2022-08-07T21:32:48.611Z,102553.47
2022-08-07T21:35:34.586Z,102550.81
2022-08-07T21:38:44.460Z,102555.09
2022-08-07T21:41:38.272Z,102551.59
2022-08-07T21:44:54.022Z,102554.13
2022-08-07T21:47:25.828Z,102550.59
2022-08-07T21:50:08.325Z,102541.84
2022-08-07T21:52:54.729Z,102552.25
2022-08-07T21:55:28.242Z,102541.72
2022-08-07T21:58:29.989Z,102550.41
2022-08-07T22:02:10.420Z,102556.44
2022-08-07T22:04:51.215Z,102542.34
2022-08-07T22:07:22.006Z,102569.38
2022-08-07T22:09:55.399Z,102568.44
2022-08-07T22:12:32.361Z,102558.78
2022-08-07T22:16:43.878Z,102551.81
2022-08-07T22:18:28.537Z,102554.28
2022-08-07T22:21:05.739Z,102564.72
2022-08-07T22:23:47.413Z,102568.97
2022-08-07T22:26:38.045Z,102576.75
2022-08-07T22:29:37.936Z,102581.91
2022-08-07T22:32:35.646Z,102580.09
2022-08-07T22:35:04.864Z,102573.06
2022-08-07T22:38:25.815Z,102572.16
2022-08-07T22:40:59.983Z,102576.44
2022-08-07T22:43:39.269Z,102571.25
2022-08-07T22:47:04.221Z,102577.31
2022-08-07T22:49:54.322Z,102572.88
2022-08-07T22:52:36.786Z,102576.31
2022-08-07T22:55:30.081Z,102575.44
2022-08-07T22:58:37.739Z,102583.19
2022-08-07T23:01:30.619Z,102581.41
2022-08-07T23:04:32.253Z,102577.88
2022-08-07T23:07:33.659Z,102583.94
2022-08-07T23:10:41.978Z,102574.34
2022-08-07T23:13:21.135Z,102582.19
2022-08-07T23:16:44.421Z,102573.50
2022-08-07T23:19:52.094Z,102577.75
2022-08-07T23:22:56.797Z,102579.38
2022-08-07T23:25:47.797Z,102586.34
2022-08-07T23:28:54.389Z,102582.75
2022-08-07T23:32:50.162Z,102585.31
2022-08-07T23:34:51.052Z,102582.63
2022-08-07T23:37:22.734Z,102584.28
2022-08-07T23:40:11.161Z,102593.75
2022-08-07T23:43:03.407Z,102594.56
2022-08-07T23:46:10.357Z,102590.19
2022-08-07T23:49:50.596Z,102590.97
2022-08-07T23:52:58.878Z,102593.50
2022-08-07T23:55:52.436Z,102600.31
2022-08-07T23:58:54.754Z,102593.31
